Time;durP1;ratioP1;P1;durP2;ratioP2;P2;SDS_P1;SDS_P2;PMS_P1;PMS_P2;Temp;Humidity;BMP_temperature;BMP_pressure;BME280_temperature;BME280_humidity;BME280_pressure;Samples;Min_cycle;Max_cycle;Signal;HPM_P1;HPM_P2
2022/12/28 00:01:12;;;;;;;14.40;4.97;;;16.10;91.80;;;;;;5050122;28;20025;-90
2022/12/28 00:03:37;;;;;;;10.57;3.90;;;16.10;91.40;;;;;;5032152;28;20025;-90
2022/12/28 00:06:04;;;;;;;8.32;4.38;;;16.10;91.40;;;;;;5043356;28;20013;-92
2022/12/28 00:08:29;;;;;;;9.73;4.00;;;16.10;91.40;;;;;;5040173;28;20120;-92
2022/12/28 00:11:03;;;;;;;13.20;3.58;;;16.10;91.40;;;;;;5031826;28;20449;-91
2022/12/28 00:13:30;;;;;;;8.35;4.57;;;16.10;91.50;;;;;;5031834;28;20017;-91
2022/12/28 00:15:57;;;;;;;11.32;4.38;;;16.10;91.50;;;;;;5031941;28;20017;-91
2022/12/28 00:18:22;;;;;;;14.50;4.43;;;16.10;91.50;;;;;;5031804;28;20017;-92
2022/12/28 00:20:59;;;;;;;9.15;3.60;;;16.10;91.50;;;;;;5031825;28;20071;-92
2022/12/28 00:23:26;;;;;;;14.05;3.72;;;16.10;91.50;;;;;;5031605;28;20017;-90
2022/12/28 00:25:52;;;;;;;10.00;4.28;;;16.10;91.50;;;;;;5031862;28;20036;-91
2022/12/28 00:28:18;;;;;;;8.45;3.38;;;16.10;91.50;;;;;;5031694;28;20052;-89
2022/12/28 00:30:43;;;;;;;17.27;4.82;;;16.10;91.50;;;;;;5032616;28;20053;-89
2022/12/28 00:33:09;;;;;;;8.65;4.07;;;16.10;91.50;;;;;;5049824;28;20025;-92
2022/12/28 00:35:34;;;;;;;13.40;3.72;;;16.10;91.50;;;;;;5051216;28;20029;-91
2022/12/28 00:38:00;;;;;;;15.43;4.70;;;16.10;91.50;;;;;;5051346;28;20036;-91
2022/12/28 00:40:25;;;;;;;11.80;4.45;;;16.00;91.50;;;;;;5051409;28;20025;-91
2022/12/28 00:42:51;;;;;;;10.43;3.83;;;16.10;91.50;;;;;;5051152;28;20031;-91
2022/12/28 00:45:16;;;;;;;11.80;4.25;;;16.10;91.60;;;;;;5050021;28;20074;-91
2022/12/28 00:47:42;;;;;;;11.65;3.85;;;16.10;91.60;;;;;;5031368;28;20114;-91
2022/12/28 00:50:08;;;;;;;12.95;3.90;;;16.10;91.50;;;;;;5031098;28;20022;-92
2022/12/28 00:52:34;;;;;;;13.93;4.38;;;16.10;91.50;;;;;;5032535;28;20092;-91
2022/12/28 00:54:59;;;;;;;8.35;3.63;;;16.10;91.50;;;;;;5037800;28;20132;-91
2022/12/28 00:57:25;;;;;;;15.80;4.07;;;16.10;91.50;;;;;;5051081;28;20025;-90
2022/12/28 00:59:50;;;;;;;12.30;3.65;;;16.10;91.50;;;;;;5050680;28;20037;-92
2022/12/28 01:02:16;;;;;;;8.80;3.60;;;16.10;91.50;;;;;;5033271;28;20501;-91
2022/12/28 01:04:41;;;;;;;9.65;3.97;;;16.10;91.50;;;;;;5031315;28;20036;-91
2022/12/28 01:07:07;;;;;;;10.15;3.83;;;16.10;91.50;;;;;;5031316;28;20033;-89
2022/12/28 01:09:32;;;;;;;7.10;3.08;;;16.10;91.50;;;;;;5031097;28;20021;-91
2022/12/28 01:11:58;;;;;;;9.23;4.28;;;16.10;91.50;;;;;;5045520;28;20029;-92
2022/12/28 01:14:23;;;;;;;7.38;3.72;;;16.10;91.60;;;;;;5050828;28;20039;-90
2022/12/28 01:16:49;;;;;;;9.73;3.60;;;16.00;91.60;;;;;;5050953;28;20048;-91
2022/12/28 01:19:21;;;;;;;9.57;3.88;;;16.00;91.60;;;;;;5051219;28;20028;-91
2022/12/28 01:21:48;;;;;;;14.48;3.85;;;16.00;91.60;;;;;;5044974;28;20112;-90
2022/12/28 01:24:14;;;;;;;7.90;3.60;;;16.10;91.60;;;;;;5030798;28;20025;-91
2022/12/28 01:26:40;;;;;;;7.05;3.95;;;16.00;91.60;;;;;;5030789;28;20041;-91
2022/12/28 01:29:06;;;;;;;10.63;4.10;;;16.00;91.60;;;;;;5030784;28;20029;-92
2022/12/28 01:31:32;;;;;;;8.73;3.72;;;16.00;91.60;;;;;;5034762;28;20482;-90
2022/12/28 01:33:57;;;;;;;9.05;3.58;;;16.10;91.60;;;;;;5050891;28;20438;-91
2022/12/28 01:36:26;;;;;;;15.60;4.35;;;16.00;91.60;;;;;;5050660;28;20029;-90
2022/12/28 01:38:54;;;;;;;11.18;3.40;;;16.00;91.60;;;;;;5050769;28;20032;-91
2022/12/28 01:41:20;;;;;;;20.02;4.72;;;16.00;91.70;;;;;;5050846;28;20029;-90
2022/12/28 01:43:52;;;;;;;9.30;3.90;;;16.00;91.60;;;;;;5031199;28;20524;-91
2022/12/28 01:46:21;;;;;;;13.30;3.83;;;16.00;91.70;;;;;;5030727;28;20029;-90
2022/12/28 01:49:15;;;;;;;9.20;3.75;;;16.00;91.70;;;;;;5037917;28;20024;-91
2022/12/28 01:51:50;;;;;;;13.35;4.00;;;16.00;91.70;;;;;;5050786;28;20111;-90
2022/12/28 01:54:16;;;;;;;14.13;4.15;;;16.00;91.70;;;;;;5050580;28;20040;-91
2022/12/28 01:56:43;;;;;;;9.10;3.42;;;16.00;91.70;;;;;;5050558;28;20029;-90
2022/12/28 01:59:10;;;;;;;9.35;4.15;;;16.00;91.70;;;;;;5050413;28;20021;-91
2022/12/28 02:01:36;;;;;;;10.40;3.90;;;16.00;91.70;;;;;;5043284;28;20111;-91
2022/12/28 02:04:01;;;;;;;14.77;3.20;;;16.00;91.70;;;;;;5030867;28;20053;-91
2022/12/28 02:06:27;;;;;;;10.05;3.30;;;16.00;91.70;;;;;;5030529;28;20034;-91
2022/12/28 02:09:01;;;;;;;10.38;3.38;;;16.00;91.60;;;;;;5030374;28;20025;-91
2022/12/28 02:11:28;;;;;;;10.55;3.95;;;16.00;91.70;;;;;;5030382;28;20021;-91
2022/12/28 02:13:54;;;;;;;9.52;3.63;;;16.00;91.70;;;;;;5030873;28;20120;-91
2022/12/28 02:16:20;;;;;;;7.60;3.47;;;16.00;91.70;;;;;;5034327;28;20030;-91
2022/12/28 02:18:46;;;;;;;9.40;3.20;;;15.90;91.70;;;;;;5033949;28;20457;-91
2022/12/28 02:21:27;;;;;;;9.60;4.10;;;16.00;91.70;;;;;;5035167;28;20470;-92
2022/12/28 02:24:10;;;;;;;12.65;3.42;;;16.00;91.70;;;;;;5033987;28;20080;-91
2022/12/28 02:26:49;;;;;;;11.25;4.05;;;16.00;91.70;;;;;;5041835;28;20409;-91
2022/12/28 02:29:33;;;;;;;9.77;3.53;;;16.00;91.70;;;;;;5033856;28;20026;-90
2022/12/28 02:32:11;;;;;;;11.25;3.80;;;16.00;91.70;;;;;;5033776;28;20033;-91
2022/12/28 02:34:56;;;;;;;9.18;3.25;;;16.00;91.70;;;;;;5033792;28;20088;-91
2022/12/28 02:37:36;;;;;;;9.88;4.00;;;16.00;91.80;;;;;;5053514;28;20032;-91
2022/12/28 02:40:10;;;;;;;10.82;3.55;;;16.00;91.70;;;;;;5038372;28;20018;-91
2022/12/28 02:42:38;;;;;;;7.07;3.00;;;16.00;91.70;;;;;;5033721;28;20023;-91
2022/12/28 02:51:09;;;;;;;8.65;3.78;;;16.00;91.80;;;;;;5034792;28;20104;-90
2022/12/28 02:53:50;;;;;;;15.98;3.17;;;16.00;91.80;;;;;;4973851;28;20061;-91
2022/12/28 02:56:43;;;;;;;10.88;3.80;;;16.00;91.80;;;;;;4976571;28;20381;-91
2022/12/28 02:59:21;;;;;;;8.35;3.72;;;16.00;91.80;;;;;;4967681;28;20018;-91
2022/12/28 03:02:17;;;;;;;6.38;3.13;;;16.00;91.80;;;;;;4973539;28;20198;-91
2022/12/28 03:08:13;;;;;;;9.00;3.47;;;16.00;91.80;;;;;;4957294;28;20035;-91
2022/12/28 03:08:18;;;;;;;10.73;3.88;;;15.90;91.80;;;;;;4973274;28;20111;-90
2022/12/28 03:11:02;;;;;;;13.15;3.85;;;16.00;91.80;;;;;;4962560;28;20054;-91
2022/12/28 03:13:42;;;;;;;16.25;3.63;;;16.00;91.80;;;;;;4992788;28;20035;-92
2022/12/28 03:16:24;;;;;;;7.75;3.50;;;16.00;91.90;;;;;;4976225;28;20042;-91
2022/12/28 03:32:57;;;;;;;6.35;3.05;;;15.90;91.90;;;;;;5034125;28;20441;-92
2022/12/28 03:35:32;;;;;;;8.52;3.58;;;15.90;91.90;;;;;;5032567;28;20026;-92
2022/12/28 03:38:02;;;;;;;11.60;3.90;;;15.90;91.90;;;;;;5035622;28;20497;-91
2022/12/28 03:40:41;;;;;;;13.63;3.63;;;15.90;91.90;;;;;;5032416;28;20029;-90
2022/12/28 03:46:34;;;;;;;7.82;2.85;;;15.90;91.90;;;;;;5033898;28;20453;-91
2022/12/28 03:49:01;;;;;;;8.38;3.53;;;15.90;91.90;;;;;;5042986;28;20116;-91
2022/12/28 03:51:29;;;;;;;8.43;3.72;;;15.90;91.90;;;;;;5041621;28;20021;-91
2022/12/28 03:53:54;;;;;;;16.27;3.20;;;15.90;92.00;;;;;;5034164;28;20112;-90
2022/12/28 03:56:24;;;;;;;7.68;3.08;;;15.90;92.00;;;;;;5052023;28;20123;-91
2022/12/28 03:58:50;;;;;;;6.87;3.17;;;15.90;92.00;;;;;;5052054;28;20401;-92
2022/12/28 04:01:16;;;;;;;6.95;2.72;;;15.90;92.00;;;;;;5052038;28;20459;-91
2022/12/28 04:03:42;;;;;;;8.18;3.45;;;15.90;92.00;;;;;;5053440;28;20044;-90
2022/12/28 04:06:14;;;;;;;10.95;3.40;;;15.90;91.90;;;;;;5051798;28;20436;-91
2022/12/28 04:08:40;;;;;;;10.10;2.75;;;15.90;92.00;;;;;;5051778;28;20021;-91
2022/12/28 04:11:06;;;;;;;10.90;3.28;;;15.90;92.00;;;;;;5039053;28;20509;-91
2022/12/28 04:13:31;;;;;;;9.10;3.22;;;15.90;92.00;;;;;;5032186;28;20109;-91
2022/12/28 04:16:06;;;;;;;5.50;2.53;;;15.90;92.00;;;;;;5031716;28;20030;-91
2022/12/28 04:18:33;;;;;;;5.63;2.97;;;15.90;92.00;;;;;;5050082;28;20032;-91
2022/12/28 04:20:59;;;;;;;6.43;2.92;;;15.90;92.00;;;;;;5047239;28;20108;-91
2022/12/28 04:23:25;;;;;;;6.10;3.17;;;15.90;92.00;;;;;;5051512;28;20115;-91
2022/12/28 04:25:59;;;;;;;5.93;2.72;;;15.90;92.00;;;;;;5051555;28;20033;-91
2022/12/28 04:28:25;;;;;;;8.73;3.22;;;15.90;92.00;;;;;;5041708;28;20554;-91
2022/12/28 04:30:51;;;;;;;7.40;3.00;;;15.90;92.00;;;;;;5031643;28;20125;-91
2022/12/28 04:33:16;;;;;;;7.00;3.08;;;15.90;92.00;;;;;;5031605;28;20103;-92
2022/12/28 04:35:42;;;;;;;11.25;3.35;;;15.90;92.00;;;;;;5031337;28;20026;-92
2022/12/28 04:38:07;;;;;;;5.15;3.05;;;15.90;92.10;;;;;;5031116;28;20061;-91
2022/12/28 04:40:33;;;;;;;6.75;2.88;;;15.90;92.00;;;;;;5031357;28;20021;-91
2022/12/28 04:42:58;;;;;;;6.97;3.08;;;15.90;92.10;;;;;;5031737;28;20060;-91
2022/12/28 04:45:24;;;;;;;6.65;3.30;;;15.90;92.00;;;;;;5043867;28;20029;-91
2022/12/28 04:47:49;;;;;;;6.95;3.13;;;15.90;92.00;;;;;;5051642;28;20482;-92
2022/12/28 04:50:15;;;;;;;10.90;3.53;;;15.90;92.00;;;;;;5051437;28;20497;-91
2022/12/28 04:52:41;;;;;;;8.13;3.05;;;15.90;92.00;;;;;;5051103;28;20017;-90
2022/12/28 04:55:07;;;;;;;8.52;3.60;;;15.90;92.40;;;;;;5051018;28;20025;-91
2022/12/28 04:57:32;;;;;;;10.75;4.07;;;15.90;92.10;;;;;;5051006;28;20025;-91
2022/12/28 04:59:58;;;;;;;6.32;3.15;;;15.90;92.00;;;;;;5037506;28;20028;-90
2022/12/28 05:02:24;;;;;;;8.63;2.85;;;15.90;92.00;;;;;;5031427;28;20032;-91
2022/12/28 05:04:49;;;;;;;7.72;3.35;;;15.90;92.10;;;;;;5034873;28;20017;-92
2022/12/28 05:07:15;;;;;;;11.63;2.90;;;15.90;92.10;;;;;;5051067;28;20025;-91
2022/12/28 05:09:40;;;;;;;10.80;3.50;;;15.90;92.10;;;;;;5051094;28;20032;-91
2022/12/28 05:12:06;;;;;;;8.05;3.60;;;15.90;92.10;;;;;;5050980;28;20025;-91
2022/12/28 05:14:31;;;;;;;6.03;3.05;;;15.90;92.10;;;;;;5051287;28;20025;-91
2022/12/28 05:16:57;;;;;;;11.20;3.08;;;15.90;92.10;;;;;;5050950;28;20047;-92
2022/12/28 05:19:22;;;;;;;8.27;3.20;;;15.90;92.10;;;;;;5050881;28;20417;-92
2022/12/28 05:21:48;;;;;;;12.45;3.28;;;15.90;92.10;;;;;;5050854;28;20021;-91
2022/12/28 05:24:13;;;;;;;8.07;2.90;;;15.90;92.10;;;;;;5050622;28;20029;-91
2022/12/28 05:26:39;;;;;;;9.88;3.28;;;15.90;92.10;;;;;;5050495;28;20037;-91
2022/12/28 05:29:04;;;;;;;8.85;3.13;;;15.80;92.10;;;;;;5050892;28;20025;-91
2022/12/28 05:31:30;;;;;;;12.02;3.30;;;15.80;92.50;;;;;;5035645;28;20037;-91
2022/12/28 05:33:55;;;;;;;7.60;2.90;;;15.80;92.10;;;;;;5030962;28;20040;-91
2022/12/28 05:36:24;;;;;;;13.50;3.42;;;15.80;92.10;;;;;;5030793;28;20033;-93
2022/12/28 05:38:51;;;;;;;4.32;2.42;;;15.80;92.20;;;;;;5032245;28;20033;-92
2022/12/28 05:41:20;;;;;;;9.27;2.92;;;15.80;92.10;;;;;;5046755;28;20018;-92
2022/12/28 05:43:46;;;;;;;9.45;3.63;;;15.80;92.20;;;;;;5030692;28;20083;-91
2022/12/28 05:46:15;;;;;;;4.95;2.63;;;15.90;92.10;;;;;;5030707;28;20108;-91
2022/12/28 05:48:42;;;;;;;7.20;3.28;;;15.90;92.10;;;;;;5041041;28;20504;-92
2022/12/28 05:51:14;;;;;;;5.53;2.83;;;15.90;92.10;;;;;;5050988;28;20048;-92
2022/12/28 05:53:40;;;;;;;11.70;3.17;;;15.90;92.00;;;;;;5034801;28;20029;-91
2022/12/28 05:56:12;;;;;;;6.05;2.75;;;15.90;92.10;;;;;;5034432;28;20022;-91
2022/12/28 05:58:37;;;;;;;9.75;2.90;;;15.90;92.50;;;;;;5036093;28;20315;-91
2022/12/28 06:01:09;;;;;;;5.85;3.15;;;15.90;92.20;;;;;;5034374;28;20022;-92
2022/12/28 06:03:35;;;;;;;9.25;2.63;;;15.90;92.20;;;;;;5034242;28;20109;-91
2022/12/28 06:06:15;;;;;;;8.90;2.95;;;16.00;92.30;;;;;;5034186;28;20025;-92
2022/12/28 06:08:42;;;;;;;9.70;2.80;;;16.00;92.20;;;;;;5045258;28;20035;-92
2022/12/28 06:11:10;;;;;;;13.15;2.97;;;16.00;92.30;;;;;;5040362;28;20056;-92
2022/12/28 06:13:36;;;;;;;8.38;3.53;;;16.00;92.20;;;;;;5034217;28;20368;-92
2022/12/28 06:16:07;;;;;;;12.82;3.50;;;16.10;92.30;;;;;;5034079;28;20021;-90
2022/12/28 06:18:33;;;;;;;8.07;2.78;;;16.10;92.20;;;;;;5034261;28;20021;-92
2022/12/28 06:21:04;;;;;;;10.95;3.15;;;16.10;92.10;;;;;;5035444;28;20029;-93
2022/12/28 06:23:30;;;;;;;6.32;2.97;;;16.10;92.20;;;;;;5035391;28;20018;-92
2022/12/28 06:26:01;;;;;;;3.33;2.25;;;16.10;92.30;;;;;;5033925;28;20506;-93
2022/12/28 06:28:27;;;;;;;6.32;2.63;;;16.10;92.20;;;;;;5034110;28;20483;-91
2022/12/28 06:31:01;;;;;;;4.15;2.40;;;16.10;92.30;;;;;;5033724;28;20021;-92
2022/12/28 06:33:26;;;;;;;5.10;2.95;;;16.10;92.30;;;;;;5049550;28;20074;-92
2022/12/28 06:35:52;;;;;;;6.80;3.17;;;16.10;92.30;;;;;;5053664;28;20025;-89
2022/12/28 06:38:17;;;;;;;9.13;2.97;;;16.10;92.40;;;;;;5053487;28;20063;-93
2022/12/28 06:40:43;;;;;;;8.10;2.65;;;16.10;92.40;;;;;;5036055;28;20045;-92
2022/12/28 06:43:08;;;;;;;9.73;3.25;;;16.10;92.30;;;;;;5033626;28;20025;-89
2022/12/28 06:45:34;;;;;;;18.23;4.18;;;16.10;92.40;;;;;;5036403;28;20019;-93
2022/12/28 06:48:00;;;;;;;17.02;2.88;;;16.10;92.40;;;;;;5038454;28;20570;-92
2022/12/28 06:50:25;;;;;;;7.38;3.20;;;16.10;92.40;;;;;;5038820;28;20126;-94
2022/12/28 06:52:51;;;;;;;16.23;2.60;;;16.20;92.40;;;;;;5036193;28;20048;-90
2022/12/28 06:55:16;;;;;;;9.90;3.38;;;16.10;92.30;;;;;;5035257;28;20026;-92
2022/12/28 06:57:42;;;;;;;10.73;3.03;;;16.10;92.20;;;;;;5033563;28;20025;-91
2022/12/28 07:00:08;;;;;;;8.63;3.05;;;16.10;92.20;;;;;;5033287;28;20036;-91
2022/12/28 07:02:34;;;;;;;10.25;2.75;;;16.10;92.20;;;;;;5036552;28;20074;-91
2022/12/28 07:04:59;;;;;;;9.27;2.88;;;16.10;92.10;;;;;;5053179;28;20029;-91
2022/12/28 07:07:25;;;;;;;9.85;3.10;;;16.10;92.40;;;;;;5053135;28;20025;-92
2022/12/28 07:09:50;;;;;;;8.75;3.30;;;16.10;92.10;;;;;;5052894;28;20554;-92
2022/12/28 07:12:16;;;;;;;9.48;2.97;;;16.10;92.00;;;;;;5043208;28;20029;-91
2022/12/28 07:14:41;;;;;;;19.50;3.35;;;16.10;92.00;;;;;;5053039;28;20079;-91
2022/12/28 07:17:07;;;;;;;9.82;3.03;;;16.10;92.00;;;;;;5052764;28;20029;-89
2022/12/28 07:19:32;;;;;;;8.48;3.20;;;16.10;92.00;;;;;;5052839;28;20074;-92
2022/12/28 07:21:58;;;;;;;11.43;2.85;;;16.10;92.00;;;;;;5052740;28;20021;-91
2022/12/28 07:24:23;;;;;;;7.93;3.08;;;16.10;92.00;;;;;;5052690;28;20052;-91
2022/12/28 07:26:49;;;;;;;7.32;2.85;;;16.00;92.00;;;;;;5053737;28;20052;-90
2022/12/28 07:29:14;;;;;;;8.60;2.47;;;16.10;92.00;;;;;;5052606;28;20020;-88
2022/12/28 07:31:40;;;;;;;4.13;2.58;;;16.00;91.90;;;;;;5053787;28;20028;-91
2022/12/28 07:34:06;;;;;;;8.45;3.05;;;16.10;92.00;;;;;;5041285;28;20057;-91
2022/12/28 07:36:32;;;;;;;9.23;3.08;;;16.00;92.00;;;;;;5032482;28;20025;-91
2022/12/28 07:38:58;;;;;;;8.13;3.10;;;16.00;92.00;;;;;;5032550;28;20148;-91
2022/12/28 07:41:31;;;;;;;7.40;2.85;;;16.00;91.90;;;;;;5032568;28;20116;-92
2022/12/28 07:43:57;;;;;;;6.00;2.53;;;16.00;91.90;;;;;;5041877;28;20025;-90
2022/12/28 07:46:25;;;;;;;8.23;2.95;;;16.00;91.90;;;;;;5052234;28;20028;-92
2022/12/28 07:48:51;;;;;;;5.13;2.35;;;16.00;92.00;;;;;;5052348;28;20566;-91
2022/12/28 07:51:20;;;;;;;11.00;3.25;;;15.90;91.90;;;;;;5052230;28;20021;-90
2022/12/28 07:53:47;;;;;;;7.60;2.85;;;16.00;91.80;;;;;;5052162;28;20028;-89
2022/12/28 07:56:13;;;;;;;7.18;2.80;;;16.00;91.90;;;;;;5054577;28;20024;-94
2022/12/28 07:58:39;;;;;;;8.57;2.25;;;16.00;91.90;;;;;;5068379;28;20033;-94
2022/12/28 08:01:13;;;;;;;7.13;2.85;;;16.00;91.80;;;;;;5061202;28;20123;-91
2022/12/28 08:03:40;;;;;;;7.07;2.70;;;16.00;91.80;;;;;;5052353;28;20120;-91
2022/12/28 08:06:13;;;;;;;7.30;2.58;;;16.00;91.80;;;;;;5051077;28;20024;-91
2022/12/28 08:08:41;;;;;;;4.00;2.38;;;16.00;91.80;;;;;;5043662;28;20036;-91
2022/12/28 08:11:10;;;;;;;2.85;2.00;;;16.00;91.80;;;;;;5051728;28;20087;-91
2022/12/28 08:13:38;;;;;;;6.53;2.75;;;16.00;91.80;;;;;;5033949;28;20052;-91
2022/12/28 08:16:05;;;;;;;6.22;2.95;;;16.20;91.60;;;;;;5041668;28;20028;-90
2022/12/28 08:18:31;;;;;;;7.05;2.13;;;16.20;91.40;;;;;;5051515;28;20397;-91
2022/12/28 08:21:01;;;;;;;13.30;2.58;;;16.30;91.40;;;;;;5051692;28;20024;-90
2022/12/28 08:23:27;;;;;;;;;;;16.30;91.30;;;;;;5052356;28;20027;-91
2022/12/28 08:25:52;;;;;;;6.68;2.15;;;16.40;91.20;;;;;;5051065;28;19991;-90
2022/12/28 08:28:18;;;;;;;7.18;2.28;;;16.40;91.30;;;;;;5049754;28;20029;-89
2022/12/28 08:30:44;;;;;;;8.55;2.63;;;16.30;91.30;;;;;;5051499;28;20025;-91
2022/12/28 08:33:09;;;;;;;5.35;2.60;;;16.30;91.40;;;;;;5053816;28;20040;-89
2022/12/28 08:35:35;;;;;;;4.93;2.58;;;16.30;91.50;;;;;;5051564;28;20413;-89
2022/12/28 08:38:00;;;;;;;5.85;3.30;;;16.30;91.70;;;;;;5051821;28;20071;-94
2022/12/28 08:40:28;;;;;;;11.15;4.30;;;16.30;84.00;;;;;;5037887;28;20053;-89
2022/12/28 08:43:01;;;;;;;7.57;3.95;;;15.70;74.70;;;;;;5031801;28;20123;-91
2022/12/28 08:45:26;;;;;;;6.53;3.67;;;15.50;78.40;;;;;;5046086;28;20070;-91
2022/12/28 08:48:03;;;;;;;7.72;4.25;;;15.40;75.20;;;;;;5033590;28;20113;-94
2022/12/28 08:50:35;;;;;;;4.95;3.67;;;15.20;67.70;;;;;;5034434;28;20036;-91
2022/12/28 08:56:32;;;;;;;5.05;3.17;;;14.70;67.50;;;;;;5046549;28;20064;-91
2022/12/28 08:58:58;;;;;;;18.30;4.25;;;14.70;71.90;;;;;;5042892;28;20023;-93
2022/12/28 09:01:25;;;;;;;23.85;5.40;;;15.00;73.60;;;;;;5042331;28;20049;-92
2022/12/28 09:03:53;;;;;;;18.05;3.92;;;15.20;75.40;;;;;;5045363;28;20094;-92
2022/12/28 09:06:22;;;;;;;13.20;3.78;;;15.30;76.70;;;;;;5056767;23;20056;-91
2022/12/28 09:08:56;;;;;;;20.52;3.53;;;15.40;77.90;;;;;;5058534;28;20021;-89
2022/12/28 09:11:22;;;;;;;18.92;3.22;;;15.50;78.70;;;;;;5055586;28;20527;-89
2022/12/28 09:13:48;;;;;;;11.45;2.53;;;15.50;79.40;;;;;;5061041;28;20060;-92
2022/12/28 09:16:16;;;;;;;12.07;2.35;;;15.60;80.10;;;;;;5057343;28;20045;-91
2022/12/28 09:18:43;;;;;;;7.38;2.22;;;15.60;80.50;;;;;;5056304;28;20041;-92
2022/12/28 09:21:14;;;;;;;11.20;1.75;;;15.70;81.10;;;;;;5063710;28;20112;-91
2022/12/28 09:23:41;;;;;;;10.85;1.90;;;15.70;81.50;;;;;;5054173;28;20033;-92
2022/12/28 09:26:11;;;;;;;10.10;2.40;;;15.80;82.00;;;;;;5058143;28;20482;-89
2022/12/28 09:28:37;;;;;;;8.43;1.73;;;15.80;82.30;;;;;;5068401;28;20048;-92
2022/12/28 09:31:07;;;;;;;10.82;1.50;;;15.90;82.80;;;;;;5063028;28;20020;-87
2022/12/28 09:36:19;;;;;;;4.15;1.60;;;16.00;83.50;;;;;;5072317;28;20161;-91
2022/12/28 09:38:48;;;;;;;9.55;2.65;;;16.00;83.70;;;;;;5063741;28;20389;-93
2022/12/28 09:41:26;;;;;;;4.65;1.77;;;16.00;84.60;;;;;;5073870;28;20166;-91
2022/12/28 09:44:03;;;;;;;7.10;1.95;;;16.10;84.10;;;;;;5075713;28;20111;-91
2022/12/28 09:46:32;;;;;;;3.63;1.20;;;16.10;85.10;;;;;;5058804;28;20025;-90
2022/12/28 09:49:01;;;;;;;4.47;1.45;;;16.10;84.50;;;;;;5058036;28;20024;-91
2022/12/28 09:51:39;;;;;;;7.88;1.67;;;16.20;84.80;;;;;;5055732;28;20496;-91
2022/12/28 09:54:04;;;;;;;3.58;1.70;;;16.20;85.00;;;;;;5055370;28;20021;-92
2022/12/28 09:56:38;;;;;;;4.30;1.52;;;16.20;85.10;;;;;;5060034;28;20021;-92
2022/12/28 09:59:06;;;;;;;3.83;1.15;;;16.30;85.40;;;;;;5071416;28;20020;-90
2022/12/28 10:01:35;;;;;;;1.65;1.20;;;16.30;85.60;;;;;;5076597;28;20039;-92
2022/12/28 10:04:01;;;;;;;10.48;2.10;;;16.30;85.80;;;;;;5065557;28;20024;-90
2022/12/28 10:06:31;;;;;;;7.45;2.10;;;16.30;85.90;;;;;;5069382;28;20032;-93
2022/12/28 10:09:00;;;;;;;4.53;1.80;;;16.40;86.10;;;;;;5071755;28;20080;-92
2022/12/28 10:11:36;;;;;;;4.43;1.50;;;16.40;86.20;;;;;;5080560;28;20028;-93
2022/12/28 10:14:11;;;;;;;8.35;1.90;;;16.40;86.50;;;;;;5060403;28;20029;-92
2022/12/28 10:16:38;;;;;;;4.78;1.10;;;16.40;86.60;;;;;;5055559;28;20025;-92
2022/12/28 10:19:05;;;;;;;8.30;1.40;;;16.50;86.80;;;;;;5062233;28;20367;-91
2022/12/28 10:21:33;;;;;;;6.95;1.58;;;16.50;87.00;;;;;;5060895;28;20021;-93
2022/12/28 10:24:00;;;;;;;4.97;1.20;;;16.50;87.10;;;;;;5057458;28;20028;-92
2022/12/28 10:26:27;;;;;;;3.80;1.27;;;16.60;87.30;;;;;;5060005;28;20024;-93
2022/12/28 10:29:03;;;;;;;6.05;1.38;;;16.60;87.50;;;;;;5058023;28;20028;-93
2022/12/28 10:31:40;;;;;;;1.98;1.17;;;16.60;87.60;;;;;;5075687;28;20063;-92
2022/12/28 10:34:23;;;;;;;1.83;1.38;;;16.60;87.70;;;;;;5071084;28;20021;-93
2022/12/28 10:36:50;;;;;;;3.03;1.13;;;16.60;88.00;;;;;;5064317;28;20029;-93
2022/12/28 10:39:24;;;;;;;7.57;1.20;;;16.70;88.00;;;;;;5065215;28;20049;-92
2022/12/28 10:41:51;;;;;;;2.58;1.35;;;16.70;88.30;;;;;;5072077;28;20122;-91
2022/12/28 10:44:28;;;;;;;2.28;1.27;;;16.70;88.30;;;;;;5069282;28;20028;-90
2022/12/28 10:46:58;;;;;;;1.50;1.10;;;16.70;88.40;;;;;;5065296;28;20032;-92
2022/12/28 10:49:24;;;;;;;;;;;16.80;88.50;;;;;;5075010;28;20396;-89
2022/12/28 10:52:06;;;;;;;6.50;1.20;;;16.80;88.60;;;;;;5056739;28;19904;-90
2022/12/28 10:54:35;;;;;;;4.88;1.35;;;16.80;88.80;;;;;;5065658;28;20029;-90
2022/12/28 10:57:21;;;;;;;3.03;1.30;;;16.80;89.00;;;;;;5057448;28;20028;-90
2022/12/28 10:59:49;;;;;;;2.78;1.30;;;16.90;89.10;;;;;;5057647;28;20025;-88
2022/12/28 11:02:22;;;;;;;2.83;1.42;;;16.90;89.30;;;;;;5065747;28;20020;-90
2022/12/28 11:04:59;;;;;;;1.20;1.00;;;16.90;89.40;;;;;;5053106;28;20505;-91
2022/12/28 11:07:28;;;;;;;4.85;1.25;;;17.00;89.40;;;;;;5067838;28;20116;-90
2022/12/28 11:10:22;;;;;;;4.00;1.00;;;17.00;89.50;;;;;;5056412;28;20120;-90
2022/12/28 11:13:19;;;;;;;6.25;1.23;;;17.00;89.70;;;;;;5053526;28;20104;-91
2022/12/28 11:15:45;;;;;;;3.35;1.30;;;17.00;89.60;;;;;;5067664;28;20033;-91
2022/12/28 11:18:18;;;;;;;6.30;1.30;;;17.10;89.90;;;;;;5065356;28;20501;-89
2022/12/28 11:20:50;;;;;;;4.57;1.30;;;17.10;89.80;;;;;;5061759;28;20049;-90
2022/12/28 11:23:30;;;;;;;2.53;1.10;;;17.10;90.00;;;;;;5072830;28;20150;-91
2022/12/28 11:25:56;;;;;;;2.63;0.85;;;17.10;90.00;;;;;;5072739;28;20017;-90
2022/12/28 11:28:22;;;;;;;2.00;1.50;;;17.20;90.10;;;;;;5066789;28;20041;-91
2022/12/28 11:30:50;;;;;;;4.22;1.00;;;17.20;90.10;;;;;;5053866;28;20082;-91
2022/12/28 11:33:30;;;;;;;1.65;1.17;;;17.20;90.10;;;;;;5064317;28;20029;-91
2022/12/28 11:35:56;;;;;;;1.67;1.10;;;17.20;90.10;;;;;;5067712;28;20031;-89
2022/12/28 11:38:42;;;;;;;2.80;1.13;;;17.20;90.10;;;;;;5072672;28;20114;-91
2022/12/28 11:41:23;;;;;;;2.83;1.45;;;17.20;90.00;;;;;;5072590;28;20038;-90
2022/12/28 11:43:57;;;;;;;1.42;1.15;;;17.30;90.10;;;;;;5072452;28;20020;-89
2022/12/28 11:46:23;;;;;;;1.27;0.95;;;17.30;90.40;;;;;;5058120;28;20025;-89
2022/12/28 11:49:22;;;;;;;2.40;1.23;;;17.30;90.00;;;;;;5072104;28;20090;-88
2022/12/28 11:52:17;;;;;;;3.80;1.30;;;17.30;90.00;;;;;;5071794;28;20029;-88
2022/12/28 11:55:19;;;;;;;1.10;1.00;;;17.30;90.00;;;;;;5057818;28;20092;-90
2022/12/28 11:57:44;;;;;;;4.28;1.30;;;17.30;90.00;;;;;;5042327;28;20029;-89
2022/12/28 12:00:19;;;;;;;1.67;1.05;;;17.30;90.00;;;;;;5056763;28;20501;-88
2022/12/28 12:03:03;;;;;;;1.05;0.90;;;17.30;90.00;;;;;;5069577;28;20023;-90
2022/12/28 12:05:37;;;;;;;2.70;0.90;;;17.30;90.00;;;;;;5059205;28;20112;-89
2022/12/28 12:08:09;;;;;;;0.90;0.85;;;17.30;90.00;;;;;;5071961;28;20474;-91
2022/12/28 12:10:35;;;;;;;0.98;0.90;;;17.30;90.00;;;;;;5084346;28;20066;-90
2022/12/28 12:13:22;;;;;;;2.55;1.20;;;17.30;90.00;;;;;;5071817;28;20028;-90
2022/12/28 12:15:49;;;;;;;1.23;1.00;;;17.40;90.00;;;;;;5070355;28;20025;-89
2022/12/28 12:18:24;;;;;;;4.72;1.10;;;17.40;90.00;;;;;;5061458;28;20083;-90
2022/12/28 12:21:05;;;;;;;4.10;1.10;;;17.40;90.00;;;;;;5068622;28;20021;-91
2022/12/28 12:23:54;;;;;;;4.43;0.90;;;17.40;90.00;;;;;;5051840;28;20109;-90
2022/12/28 12:26:42;;;;;;;3.20;0.93;;;17.30;90.00;;;;;;5051909;28;20116;-90
2022/12/28 12:29:23;;;;;;;1.20;1.10;;;17.30;90.00;;;;;;5051623;28;20115;-90
2022/12/28 12:32:04;;;;;;;1.33;0.90;;;17.30;90.00;;;;;;5051896;28;20415;-89
2022/12/28 12:34:44;;;;;;;0.85;0.73;;;17.40;90.00;;;;;;5057697;28;20448;-87
2022/12/28 12:37:48;;;;;;;2.85;1.00;;;17.40;90.00;;;;;;5057564;28;20116;-89
2022/12/28 12:40:47;;;;;;;1.35;0.90;;;17.40;90.00;;;;;;5065178;28;20449;-90
2022/12/28 12:43:24;;;;;;;2.60;1.20;;;17.40;90.00;;;;;;5063190;28;20028;-90
2022/12/28 12:46:10;;;;;;;2.53;1.00;;;17.30;90.00;;;;;;5053516;28;20021;-90
2022/12/28 12:49:03;;;;;;;1.75;1.15;;;17.40;90.00;;;;;;5063319;28;20183;-90
2022/12/28 12:51:40;;;;;;;0.90;0.90;;;17.30;90.00;;;;;;5051670;28;20111;-89
2022/12/28 12:54:25;;;;;;;2.50;1.00;;;17.40;90.00;;;;;;5051383;28;20120;-90
2022/12/28 12:56:56;;;;;;;1.52;0.93;;;17.40;90.00;;;;;;5070238;28;20517;-91
2022/12/28 12:59:52;;;;;;;2.85;1.15;;;17.40;90.00;;;;;;5069113;28;20043;-90
2022/12/28 13:02:41;;;;;;;2.80;1.27;;;17.40;90.00;;;;;;5064587;28;20115;-91
2022/12/28 13:05:15;;;;;;;1.08;1.02;;;17.30;89.90;;;;;;5052845;28;20580;-90
2022/12/28 13:07:40;;;;;;;1.10;1.00;;;17.40;90.00;;;;;;5052347;28;20029;-90
2022/12/28 13:10:14;;;;;;;0.80;0.80;;;17.40;90.30;;;;;;5071387;28;20501;-88
2022/12/28 13:12:40;;;;;;;2.10;0.80;;;17.40;89.90;;;;;;5071231;28;20025;-90
2022/12/28 13:15:06;;;;;;;1.27;1.00;;;17.40;89.90;;;;;;5063190;28;20025;-89
2022/12/28 13:17:34;;;;;;;3.25;1.00;;;17.40;90.00;;;;;;5059768;28;20078;-90
2022/12/28 13:20:19;;;;;;;1.45;1.15;;;17.40;90.00;;;;;;5067042;28;20029;-91
2022/12/28 13:22:46;;;;;;;2.17;1.08;;;17.40;90.00;;;;;;5054225;28;20021;-90
2022/12/28 13:25:32;;;;;;;2.03;1.08;;;17.40;90.00;;;;;;5066278;28;20140;-90
2022/12/28 13:28:00;;;;;;;3.17;1.05;;;17.40;90.00;;;;;;5071475;28;20032;-91
2022/12/28 13:30:27;;;;;;;1.15;0.90;;;17.40;90.00;;;;;;5070849;28;20115;-90
2022/12/28 13:32:58;;;;;;;2.47;1.20;;;17.40;90.10;;;;;;5067313;28;20752;-91